Accueil
METAR-TAF:

METAR-TAF

Aéroports :

Amman, Jordanie

Aéroport civil d'Amman

latitude: 31-59N, longitude: 035-59E, altitude: 767 m

Observation

Le bulletin a été fait il y a 1 heure et 4 minutes, à 02:00 UTC
Vent 4 kt de nord/nord-ouest
Température 19°C
Humidité 73%
Pression 1013 hPa
Visibilité: 5000 m
brume sèche

METAR: OJAM 240200Z 33004KT 5000 HZ NSC 19/14 Q1013 NOSIG

Heure: 06:04 (03:04 UTC)

Prévision

Le bulletin a été fait il y a 4 heures et 14 minutes, à 22:50 UTC
Prévision valable du 24 à 00 UTC au 25 à 06 UTC
Vent 10 kt de ouest/nord-ouest
Visibilité: 5000 m
brume sèche

TAF: OJAM 232250Z 2400/2506 29010KT 5000 HZ NSC

Observations et prévisions météorologiques de plus de 4000 aéroports (messages METAR et TAF).

Les stations disponibles sont représentées par des disques jaunes et rouges sur la carte.

Passer la souris dessus pour voir le nom de la station.

Cliquer dessus pour voir les observations et prévisions météorologiques.

Pour changer de carte: cliquez sur les boutons verts avec une croix noire pour zoomer, sur le bouton vert avec un tiret pour effectuer un zoom arrière, ou sur les flèches vertes pour les cartes adjacentes.


METAR-TAF: